Zamora, California
Current Conditions -  °F | °C
As of 2:53 PM on Thursday 27 Nov 2014 (Local Time) from KSMF Reporting Station
Scattered Clouds Scattered Clouds  
Wind Chill: 67°   Ceiling: Unl
Heat Index: 67°   Visibility: 10mi
Dew Point: 46°   Wind: 0mph
Humidity: 47%   Direction: NA
Pressure: 30.08"   Gusts: NA
Location:  38.8°N, 121.88°W
Report Text: KSMF 272253Z 00000KT 10SM SCT220 19/08 A3008 RMK AO2 SLP186 T01940078
Loading
Personal Weather Stations






























Interactive Weather Map New forecast layout! Learn more

10-Day Weather Forecast

Advertisements
Track Severe Weather on mobile